sensor_id;sensor_type;location;lat;lon;timestamp;P1;durP1;ratioP1;P2;durP2;ratioP2
64959;SDS011;51487;52.266;10.542;2023-03-14T00:01:57;9.30;;;2.67;;
64959;SDS011;51487;52.266;10.542;2023-03-14T00:04:23;4.65;;;2.60;;
64959;SDS011;51487;52.266;10.542;2023-03-14T00:06:48;5.68;;;2.50;;
64959;SDS011;51487;52.266;10.542;2023-03-14T00:09:14;5.25;;;2.60;;
64959;SDS011;51487;52.266;10.542;2023-03-14T00:11:41;5.45;;;2.20;;
64959;SDS011;51487;52.266;10.542;2023-03-14T00:14:07;5.53;;;2.30;;
64959;SDS011;51487;52.266;10.542;2023-03-14T00:16:32;5.63;;;2.30;;
64959;SDS011;51487;52.266;10.542;2023-03-14T00:18:58;4.95;;;2.42;;
64959;SDS011;51487;52.266;10.542;2023-03-14T00:21:24;3.58;;;1.80;;
64959;SDS011;51487;52.266;10.542;2023-03-14T00:23:50;3.70;;;1.80;;
64959;SDS011;51487;52.266;10.542;2023-03-14T00:26:17;4.30;;;1.70;;
64959;SDS011;51487;52.266;10.542;2023-03-14T00:28:45;2.42;;;1.70;;
64959;SDS011;51487;52.266;10.542;2023-03-14T00:31:15;3.20;;;1.65;;
64959;SDS011;51487;52.266;10.542;2023-03-14T00:33:41;3.83;;;1.80;;
64959;SDS011;51487;52.266;10.542;2023-03-14T00:36:09;4.20;;;1.70;;
64959;SDS011;51487;52.266;10.542;2023-03-14T00:38:41;2.70;;;1.77;;
64959;SDS011;51487;52.266;10.542;2023-03-14T00:41:10;4.95;;;1.98;;
64959;SDS011;51487;52.266;10.542;2023-03-14T00:43:39;3.97;;;2.45;;
64959;SDS011;51487;52.266;10.542;2023-03-14T00:46:04;6.15;;;2.17;;
64959;SDS011;51487;52.266;10.542;2023-03-14T00:48:31;4.30;;;1.98;;
64959;SDS011;51487;52.266;10.542;2023-03-14T00:50:57;4.63;;;2.05;;
64959;SDS011;51487;52.266;10.542;2023-03-14T00:53:22;5.15;;;2.47;;
64959;SDS011;51487;52.266;10.542;2023-03-14T00:55:48;4.13;;;2.50;;
64959;SDS011;51487;52.266;10.542;2023-03-14T00:58:15;5.90;;;2.92;;
64959;SDS011;51487;52.266;10.542;2023-03-14T01:00:43;6.82;;;3.13;;
64959;SDS011;51487;52.266;10.542;2023-03-14T01:03:10;8.85;;;3.13;;
64959;SDS011;51487;52.266;10.542;2023-03-14T01:05:38;6.28;;;2.92;;
64959;SDS011;51487;52.266;10.542;2023-03-14T01:08:04;4.75;;;2.50;;
64959;SDS011;51487;52.266;10.542;2023-03-14T01:10:31;4.43;;;2.30;;
64959;SDS011;51487;52.266;10.542;2023-03-14T01:12:58;3.67;;;2.50;;
64959;SDS011;51487;52.266;10.542;2023-03-14T01:15:23;4.28;;;1.90;;
64959;SDS011;51487;52.266;10.542;2023-03-14T01:17:49;2.90;;;1.80;;
64959;SDS011;51487;52.266;10.542;2023-03-14T01:20:15;3.17;;;1.63;;
64959;SDS011;51487;52.266;10.542;2023-03-14T01:22:42;4.57;;;1.88;;
64959;SDS011;51487;52.266;10.542;2023-03-14T01:25:09;3.13;;;1.60;;
64959;SDS011;51487;52.266;10.542;2023-03-14T01:27:38;3.80;;;1.55;;
64959;SDS011;51487;52.266;10.542;2023-03-14T01:30:04;3.40;;;2.00;;
64959;SDS011;51487;52.266;10.542;2023-03-14T01:32:33;5.63;;;1.77;;
64959;SDS011;51487;52.266;10.542;2023-03-14T01:34:59;5.93;;;3.50;;
64959;SDS011;51487;52.266;10.542;2023-03-14T01:37:24;4.10;;;1.92;;
64959;SDS011;51487;52.266;10.542;2023-03-14T01:39:50;4.18;;;2.15;;
64959;SDS011;51487;52.266;10.542;2023-03-14T01:42:15;5.90;;;1.80;;
64959;SDS011;51487;52.266;10.542;2023-03-14T01:44:51;3.80;;;1.75;;
64959;SDS011;51487;52.266;10.542;2023-03-14T01:47:26;1.40;;;1.30;;
64959;SDS011;51487;52.266;10.542;2023-03-14T01:49:54;3.00;;;1.30;;
64959;SDS011;51487;52.266;10.542;2023-03-14T01:52:33;8.13;;;1.55;;
64959;SDS011;51487;52.266;10.542;2023-03-14T01:55:07;4.28;;;1.50;;
64959;SDS011;51487;52.266;10.542;2023-03-14T01:57:39;2.83;;;1.40;;
64959;SDS011;51487;52.266;10.542;2023-03-14T02:00:14;1.50;;;1.40;;
64959;SDS011;51487;52.266;10.542;2023-03-14T02:02:47;3.38;;;1.50;;
64959;SDS011;51487;52.266;10.542;2023-03-14T02:05:20;4.47;;;1.40;;
64959;SDS011;51487;52.266;10.542;2023-03-14T02:07:52;3.40;;;1.50;;
64959;SDS011;51487;52.266;10.542;2023-03-14T02:10:25;2.65;;;1.20;;
64959;SDS011;51487;52.266;10.542;2023-03-14T02:12:59;2.97;;;1.20;;
64959;SDS011;51487;52.266;10.542;2023-03-14T02:15:28;1.50;;;1.40;;
64959;SDS011;51487;52.266;10.542;2023-03-14T02:17:54;1.73;;;1.30;;
64959;SDS011;51487;52.266;10.542;2023-03-14T02:20:30;2.47;;;1.40;;
64959;SDS011;51487;52.266;10.542;2023-03-14T02:23:50;2.75;;;1.60;;
64959;SDS011;51487;52.266;10.542;2023-03-14T02:26:34;5.53;;;1.52;;
64959;SDS011;51487;52.266;10.542;2023-03-14T02:29:08;2.83;;;1.40;;
64959;SDS011;51487;52.266;10.542;2023-03-14T02:31:34;2.58;;;1.50;;
64959;SDS011;51487;52.266;10.542;2023-03-14T02:34:00;2.67;;;1.60;;
64959;SDS011;51487;52.266;10.542;2023-03-14T02:36:27;4.43;;;1.80;;
64959;SDS011;51487;52.266;10.542;2023-03-14T02:39:11;5.43;;;1.90;;
64959;SDS011;51487;52.266;10.542;2023-03-14T02:41:46;5.57;;;2.10;;
64959;SDS011;51487;52.266;10.542;2023-03-14T02:44:14;3.28;;;1.80;;
64959;SDS011;51487;52.266;10.542;2023-03-14T02:46:39;3.78;;;1.98;;
64959;SDS011;51487;52.266;10.542;2023-03-14T02:49:07;5.55;;;1.90;;
64959;SDS011;51487;52.266;10.542;2023-03-14T02:51:36;8.88;;;2.30;;
64959;SDS011;51487;52.266;10.542;2023-03-14T02:54:05;3.40;;;1.58;;
64959;SDS011;51487;52.266;10.542;2023-03-14T02:56:30;8.63;;;1.85;;
64959;SDS011;51487;52.266;10.542;2023-03-14T02:58:56;3.90;;;1.90;;
64959;SDS011;51487;52.266;10.542;2023-03-14T03:01:22;4.68;;;1.67;;
64959;SDS011;51487;52.266;10.542;2023-03-14T03:03:48;3.25;;;1.88;;
64959;SDS011;51487;52.266;10.542;2023-03-14T03:06:14;6.07;;;2.00;;
64959;SDS011;51487;52.266;10.542;2023-03-14T03:08:40;6.22;;;2.10;;
64959;SDS011;51487;52.266;10.542;2023-03-14T03:11:06;8.23;;;2.65;;
64959;SDS011;51487;52.266;10.542;2023-03-14T03:13:32;6.05;;;2.40;;
64959;SDS011;51487;52.266;10.542;2023-03-14T03:15:58;5.75;;;2.10;;
64959;SDS011;51487;52.266;10.542;2023-03-14T03:18:24;5.10;;;2.50;;
64959;SDS011;51487;52.266;10.542;2023-03-14T03:20:49;5.18;;;2.25;;
64959;SDS011;51487;52.266;10.542;2023-03-14T03:23:15;5.90;;;1.95;;
64959;SDS011;51487;52.266;10.542;2023-03-14T03:25:41;7.18;;;2.00;;
64959;SDS011;51487;52.266;10.542;2023-03-14T03:28:06;3.75;;;1.75;;
64959;SDS011;51487;52.266;10.542;2023-03-14T03:30:39;5.97;;;1.95;;
64959;SDS011;51487;52.266;10.542;2023-03-14T03:35:31;5.00;;;1.70;;
64959;SDS011;51487;52.266;10.542;2023-03-14T03:37:57;4.25;;;1.48;;
64959;SDS011;51487;52.266;10.542;2023-03-14T03:40:23;4.13;;;1.55;;
64959;SDS011;51487;52.266;10.542;2023-03-14T03:42:49;3.65;;;1.60;;
64959;SDS011;51487;52.266;10.542;2023-03-14T03:45:14;2.22;;;1.40;;
64959;SDS011;51487;52.266;10.542;2023-03-14T03:47:40;3.22;;;1.60;;
64959;SDS011;51487;52.266;10.542;2023-03-14T03:50:05;5.07;;;1.73;;
64959;SDS011;51487;52.266;10.542;2023-03-14T03:52:31;2.85;;;1.63;;
64959;SDS011;51487;52.266;10.542;2023-03-14T03:54:57;2.75;;;1.65;;
64959;SDS011;51487;52.266;10.542;2023-03-14T03:57:22;3.88;;;1.67;;
64959;SDS011;51487;52.266;10.542;2023-03-14T03:59:48;4.60;;;2.03;;
64959;SDS011;51487;52.266;10.542;2023-03-14T04:02:13;4.35;;;2.00;;
64959;SDS011;51487;52.266;10.542;2023-03-14T04:04:39;3.70;;;1.95;;
64959;SDS011;51487;52.266;10.542;2023-03-14T04:07:04;8.75;;;1.80;;
64959;SDS011;51487;52.266;10.542;2023-03-14T04:09:30;4.35;;;1.60;;
64959;SDS011;51487;52.266;10.542;2023-03-14T04:11:56;4.35;;;2.08;;
64959;SDS011;51487;52.266;10.542;2023-03-14T04:14:22;5.50;;;2.03;;
64959;SDS011;51487;52.266;10.542;2023-03-14T04:16:48;4.93;;;1.95;;
64959;SDS011;51487;52.266;10.542;2023-03-14T04:19:14;6.65;;;1.90;;
64959;SDS011;51487;52.266;10.542;2023-03-14T04:21:39;4.60;;;1.98;;
64959;SDS011;51487;52.266;10.542;2023-03-14T04:24:09;3.63;;;1.70;;
64959;SDS011;51487;52.266;10.542;2023-03-14T04:26:35;6.28;;;1.92;;
64959;SDS011;51487;52.266;10.542;2023-03-14T04:29:00;3.58;;;2.00;;
64959;SDS011;51487;52.266;10.542;2023-03-14T04:31:26;3.75;;;1.77;;
64959;SDS011;51487;52.266;10.542;2023-03-14T04:33:53;5.50;;;1.88;;
64959;SDS011;51487;52.266;10.542;2023-03-14T04:36:18;3.58;;;1.77;;
64959;SDS011;51487;52.266;10.542;2023-03-14T04:38:44;2.10;;;1.42;;
64959;SDS011;51487;52.266;10.542;2023-03-14T04:41:10;2.28;;;1.50;;
64959;SDS011;51487;52.266;10.542;2023-03-14T04:43:35;4.20;;;1.80;;
64959;SDS011;51487;52.266;10.542;2023-03-14T04:46:01;3.65;;;1.38;;
64959;SDS011;51487;52.266;10.542;2023-03-14T04:48:27;2.72;;;1.35;;
64959;SDS011;51487;52.266;10.542;2023-03-14T04:50:53;2.70;;;1.27;;
64959;SDS011;51487;52.266;10.542;2023-03-14T04:53:19;3.75;;;1.40;;
64959;SDS011;51487;52.266;10.542;2023-03-14T04:55:49;2.72;;;1.40;;
64959;SDS011;51487;52.266;10.542;2023-03-14T04:58:17;2.92;;;1.20;;
64959;SDS011;51487;52.266;10.542;2023-03-14T05:00:43;1.67;;;1.30;;
64959;SDS011;51487;52.266;10.542;2023-03-14T05:03:09;3.10;;;1.30;;
64959;SDS011;51487;52.266;10.542;2023-03-14T05:05:35;4.93;;;1.63;;
64959;SDS011;51487;52.266;10.542;2023-03-14T05:08:00;2.78;;;1.20;;
64959;SDS011;51487;52.266;10.542;2023-03-14T05:10:26;2.58;;;1.27;;
64959;SDS011;51487;52.266;10.542;2023-03-14T05:12:51;2.60;;;1.30;;
64959;SDS011;51487;52.266;10.542;2023-03-14T05:15:17;2.58;;;1.30;;
64959;SDS011;51487;52.266;10.542;2023-03-14T05:17:42;3.67;;;1.10;;
64959;SDS011;51487;52.266;10.542;2023-03-14T05:20:08;1.55;;;1.10;;
64959;SDS011;51487;52.266;10.542;2023-03-14T05:22:35;2.47;;;1.40;;
64959;SDS011;51487;52.266;10.542;2023-03-14T05:25:00;2.03;;;1.10;;
64959;SDS011;51487;52.266;10.542;2023-03-14T05:27:26;3.47;;;1.67;;
64959;SDS011;51487;52.266;10.542;2023-03-14T05:29:51;1.73;;;1.02;;
64959;SDS011;51487;52.266;10.542;2023-03-14T05:32:17;2.08;;;1.17;;
64959;SDS011;51487;52.266;10.542;2023-03-14T05:34:42;3.00;;;1.38;;
64959;SDS011;51487;52.266;10.542;2023-03-14T05:37:08;2.70;;;1.00;;
64959;SDS011;51487;52.266;10.542;2023-03-14T05:39:33;2.35;;;1.30;;
64959;SDS011;51487;52.266;10.542;2023-03-14T05:41:59;1.75;;;1.17;;
64959;SDS011;51487;52.266;10.542;2023-03-14T05:44:24;1.25;;;1.10;;
64959;SDS011;51487;52.266;10.542;2023-03-14T05:46:50;3.13;;;1.20;;
64959;SDS011;51487;52.266;10.542;2023-03-14T05:49:15;3.08;;;1.27;;
64959;SDS011;51487;52.266;10.542;2023-03-14T05:51:41;4.30;;;1.30;;
64959;SDS011;51487;52.266;10.542;2023-03-14T05:54:07;4.38;;;1.30;;
64959;SDS011;51487;52.266;10.542;2023-03-14T05:56:33;2.00;;;1.30;;
64959;SDS011;51487;52.266;10.542;2023-03-14T05:58:58;2.10;;;1.30;;
64959;SDS011;51487;52.266;10.542;2023-03-14T06:01:27;3.42;;;1.10;;
64959;SDS011;51487;52.266;10.542;2023-03-14T06:03:53;1.40;;;0.90;;
64959;SDS011;51487;52.266;10.542;2023-03-14T06:06:18;1.23;;;1.10;;
64959;SDS011;51487;52.266;10.542;2023-03-14T06:08:44;1.98;;;1.10;;
64959;SDS011;51487;52.266;10.542;2023-03-14T06:11:09;4.53;;;1.20;;
64959;SDS011;51487;52.266;10.542;2023-03-14T06:13:35;1.38;;;1.10;;
64959;SDS011;51487;52.266;10.542;2023-03-14T06:16:01;5.35;;;1.17;;
64959;SDS011;51487;52.266;10.542;2023-03-14T06:18:26;2.75;;;1.20;;
64959;SDS011;51487;52.266;10.542;2023-03-14T06:20:55;2.70;;;1.20;;
64959;SDS011;51487;52.266;10.542;2023-03-14T06:23:21;1.60;;;0.95;;
64959;SDS011;51487;52.266;10.542;2023-03-14T06:25:47;5.05;;;1.23;;
64959;SDS011;51487;52.266;10.542;2023-03-14T06:28:13;2.10;;;1.13;;
64959;SDS011;51487;52.266;10.542;2023-03-14T06:30:39;5.13;;;1.73;;
64959;SDS011;51487;52.266;10.542;2023-03-14T06:33:05;2.95;;;2.00;;
64959;SDS011;51487;52.266;10.542;2023-03-14T06:35:30;3.45;;;1.83;;
64959;SDS011;51487;52.266;10.542;2023-03-14T06:37:56;1.77;;;1.55;;
64959;SDS011;51487;52.266;10.542;2023-03-14T06:40:21;6.00;;;1.90;;
64959;SDS011;51487;52.266;10.542;2023-03-14T06:42:47;2.40;;;1.90;;
64959;SDS011;51487;52.266;10.542;2023-03-14T06:45:13;5.45;;;2.40;;
64959;SDS011;51487;52.266;10.542;2023-03-14T06:47:39;4.03;;;1.70;;
64959;SDS011;51487;52.266;10.542;2023-03-14T06:50:05;3.40;;;1.50;;
64959;SDS011;51487;52.266;10.542;2023-03-14T06:52:33;5.40;;;1.63;;
64959;SDS011;51487;52.266;10.542;2023-03-14T06:54:59;6.20;;;1.77;;
64959;SDS011;51487;52.266;10.542;2023-03-14T06:57:25;5.68;;;1.50;;
64959;SDS011;51487;52.266;10.542;2023-03-14T06:59:50;4.25;;;1.40;;
64959;SDS011;51487;52.266;10.542;2023-03-14T07:02:16;3.90;;;1.23;;
64959;SDS011;51487;52.266;10.542;2023-03-14T07:04:42;4.88;;;1.40;;
64959;SDS011;51487;52.266;10.542;2023-03-14T07:07:07;3.70;;;1.33;;
64959;SDS011;51487;52.266;10.542;2023-03-14T07:09:33;3.13;;;1.25;;
64959;SDS011;51487;52.266;10.542;2023-03-14T07:11:59;1.50;;;1.00;;
64959;SDS011;51487;52.266;10.542;2023-03-14T07:14:25;2.63;;;1.27;;
64959;SDS011;51487;52.266;10.542;2023-03-14T07:16:51;4.57;;;1.25;;
64959;SDS011;51487;52.266;10.542;2023-03-14T07:19:16;4.78;;;1.00;;
64959;SDS011;51487;52.266;10.542;2023-03-14T07:21:42;2.67;;;1.52;;
64959;SDS011;51487;52.266;10.542;2023-03-14T07:24:07;1.35;;;1.20;;
64959;SDS011;51487;52.266;10.542;2023-03-14T07:26:33;3.17;;;1.20;;
64959;SDS011;51487;52.266;10.542;2023-03-14T07:28:58;2.85;;;1.08;;
64959;SDS011;51487;52.266;10.542;2023-03-14T07:31:25;1.88;;;1.10;;
64959;SDS011;51487;52.266;10.542;2023-03-14T07:33:50;2.97;;;1.10;;
64959;SDS011;51487;52.266;10.542;2023-03-14T07:36:16;2.72;;;1.33;;
64959;SDS011;51487;52.266;10.542;2023-03-14T07:38:41;3.15;;;1.10;;
64959;SDS011;51487;52.266;10.542;2023-03-14T07:41:07;2.00;;;1.23;;
64959;SDS011;51487;52.266;10.542;2023-03-14T07:43:33;2.28;;;1.10;;
64959;SDS011;51487;52.266;10.542;2023-03-14T07:45:59;2.85;;;1.10;;
64959;SDS011;51487;52.266;10.542;2023-03-14T07:48:25;2.83;;;1.20;;
64959;SDS011;51487;52.266;10.542;2023-03-14T07:50:52;3.58;;;1.30;;
64959;SDS011;51487;52.266;10.542;2023-03-14T07:53:19;1.33;;;1.00;;
64959;SDS011;51487;52.266;10.542;2023-03-14T07:55:46;2.63;;;1.25;;
64959;SDS011;51487;52.266;10.542;2023-03-14T07:58:12;1.38;;;1.00;;
64959;SDS011;51487;52.266;10.542;2023-03-14T08:00:38;2.35;;;1.23;;
64959;SDS011;51487;52.266;10.542;2023-03-14T08:03:04;3.30;;;1.08;;
64959;SDS011;51487;52.266;10.542;2023-03-14T08:05:30;2.38;;;1.10;;
64959;SDS011;51487;52.266;10.542;2023-03-14T08:07:59;3.40;;;1.40;;
64959;SDS011;51487;52.266;10.542;2023-03-14T08:10:25;1.95;;;1.20;;
64959;SDS011;51487;52.266;10.542;2023-03-14T08:12:51;3.17;;;1.40;;
64959;SDS011;51487;52.266;10.542;2023-03-14T08:15:20;6.18;;;1.90;;
64959;SDS011;51487;52.266;10.542;2023-03-14T08:17:47;3.13;;;1.40;;
64959;SDS011;51487;52.266;10.542;2023-03-14T08:20:16;4.95;;;1.85;;
64959;SDS011;51487;52.266;10.542;2023-03-14T08:22:42;4.30;;;1.30;;
64959;SDS011;51487;52.266;10.542;2023-03-14T08:25:08;2.90;;;1.20;;
64959;SDS011;51487;52.266;10.542;2023-03-14T08:27:34;4.70;;;1.50;;
64959;SDS011;51487;52.266;10.542;2023-03-14T08:30:02;5.50;;;1.55;;
64959;SDS011;51487;52.266;10.542;2023-03-14T08:32:29;5.70;;;1.60;;
64959;SDS011;51487;52.266;10.542;2023-03-14T08:34:55;4.90;;;1.45;;
64959;SDS011;51487;52.266;10.542;2023-03-14T08:37:20;7.00;;;2.15;;
64959;SDS011;51487;52.266;10.542;2023-03-14T08:39:49;9.23;;;1.77;;
64959;SDS011;51487;52.266;10.542;2023-03-14T08:42:14;4.57;;;1.30;;
64959;SDS011;51487;52.266;10.542;2023-03-14T08:44:40;3.88;;;1.50;;
64959;SDS011;51487;52.266;10.542;2023-03-14T08:47:06;3.53;;;1.50;;
64959;SDS011;51487;52.266;10.542;2023-03-14T08:49:32;2.75;;;1.10;;
64959;SDS011;51487;52.266;10.542;2023-03-14T08:51:57;4.25;;;1.30;;
64959;SDS011;51487;52.266;10.542;2023-03-14T08:54:23;4.47;;;1.70;;
64959;SDS011;51487;52.266;10.542;2023-03-14T08:56:49;2.92;;;1.25;;
64959;SDS011;51487;52.266;10.542;2023-03-14T08:59:15;2.75;;;1.25;;
64959;SDS011;51487;52.266;10.542;2023-03-14T09:01:40;2.45;;;1.17;;
64959;SDS011;51487;52.266;10.542;2023-03-14T09:04:06;3.88;;;1.30;;
64959;SDS011;51487;52.266;10.542;2023-03-14T09:06:32;4.38;;;1.10;;
64959;SDS011;51487;52.266;10.542;2023-03-14T09:08:57;2.95;;;1.00;;
64959;SDS011;51487;52.266;10.542;2023-03-14T09:11:23;5.72;;;1.35;;
64959;SDS011;51487;52.266;10.542;2023-03-14T09:13:48;2.22;;;1.00;;
64959;SDS011;51487;52.266;10.542;2023-03-14T09:16:14;2.88;;;1.40;;
64959;SDS011;51487;52.266;10.542;2023-03-14T09:18:40;1.08;;;1.05;;
64959;SDS011;51487;52.266;10.542;2023-03-14T09:21:05;1.33;;;0.80;;
64959;SDS011;51487;52.266;10.542;2023-03-14T09:23:31;1.20;;;1.00;;
64959;SDS011;51487;52.266;10.542;2023-03-14T09:25:58;4.40;;;1.25;;
64959;SDS011;51487;52.266;10.542;2023-03-14T09:28:25;1.50;;;0.98;;
64959;SDS011;51487;52.266;10.542;2023-03-14T09:30:51;5.70;;;1.50;;
64959;SDS011;51487;52.266;10.542;2023-03-14T09:33:17;1.67;;;0.90;;
64959;SDS011;51487;52.266;10.542;2023-03-14T09:35:43;2.45;;;1.17;;
64959;SDS011;51487;52.266;10.542;2023-03-14T09:38:08;2.50;;;0.93;;
64959;SDS011;51487;52.266;10.542;2023-03-14T09:40:34;3.08;;;1.00;;
64959;SDS011;51487;52.266;10.542;2023-03-14T09:43:02;2.03;;;1.10;;
64959;SDS011;51487;52.266;10.542;2023-03-14T09:45:39;3.53;;;1.20;;
64959;SDS011;51487;52.266;10.542;2023-03-14T09:48:12;1.85;;;1.10;;
64959;SDS011;51487;52.266;10.542;2023-03-14T09:50:53;2.78;;;1.10;;
64959;SDS011;51487;52.266;10.542;2023-03-14T09:53:23;2.00;;;1.10;;
64959;SDS011;51487;52.266;10.542;2023-03-14T09:56:10;2.40;;;1.05;;
64959;SDS011;51487;52.266;10.542;2023-03-14T09:58:42;3.92;;;1.10;;
64959;SDS011;51487;52.266;10.542;2023-03-14T10:01:15;2.70;;;1.58;;
64959;SDS011;51487;52.266;10.542;2023-03-14T10:03:45;0.93;;;0.88;;
64959;SDS011;51487;52.266;10.542;2023-03-14T10:06:12;2.67;;;1.08;;
64959;SDS011;51487;52.266;10.542;2023-03-14T10:08:40;1.42;;;0.85;;
64959;SDS011;51487;52.266;10.542;2023-03-14T10:11:25;1.88;;;0.90;;
64959;SDS011;51487;52.266;10.542;2023-03-14T10:16:28;1.48;;;0.85;;
64959;SDS011;51487;52.266;10.542;2023-03-14T10:19:07;1.80;;;0.90;;
64959;SDS011;51487;52.266;10.542;2023-03-14T10:21:39;1.27;;;0.82;;
64959;SDS011;51487;52.266;10.542;2023-03-14T10:24:09;1.10;;;0.90;;
64959;SDS011;51487;52.266;10.542;2023-03-14T10:26:49;1.13;;;0.95;;
64959;SDS011;51487;52.266;10.542;2023-03-14T10:29:23;1.00;;;1.00;;
64959;SDS011;51487;52.266;10.542;2023-03-14T10:34:31;1.52;;;0.70;;
64959;SDS011;51487;52.266;10.542;2023-03-14T10:37:21;0.80;;;0.80;;
64959;SDS011;51487;52.266;10.542;2023-03-14T10:39:52;0.85;;;0.73;;
64959;SDS011;51487;52.266;10.542;2023-03-14T10:45:06;1.02;;;0.80;;
64959;SDS011;51487;52.266;10.542;2023-03-14T10:48:18;0.70;;;0.70;;
64959;SDS011;51487;52.266;10.542;2023-03-14T10:51:10;2.30;;;0.80;;
64959;SDS011;51487;52.266;10.542;2023-03-14T10:53:46;2.10;;;0.70;;
64959;SDS011;51487;52.266;10.542;2023-03-14T10:56:24;1.60;;;0.75;;
64959;SDS011;51487;52.266;10.542;2023-03-14T10:58:58;2.60;;;0.90;;
64959;SDS011;51487;52.266;10.542;2023-03-14T11:07:41;1.67;;;1.00;;
64959;SDS011;51487;52.266;10.542;2023-03-14T11:24:16;0.77;;;0.77;;
64959;SDS011;51487;52.266;10.542;2023-03-14T11:29:53;1.52;;;0.85;;
64959;SDS011;51487;52.266;10.542;2023-03-14T11:32:44;0.80;;;0.80;;
64959;SDS011;51487;52.266;10.542;2023-03-14T11:35:37;0.80;;;0.80;;
64959;SDS011;51487;52.266;10.542;2023-03-14T11:40:50;2.25;;;0.90;;
64959;SDS011;51487;52.266;10.542;2023-03-14T11:43:26;1.65;;;0.80;;
64959;SDS011;51487;52.266;10.542;2023-03-14T11:46:17;0.73;;;0.73;;
64959;SDS011;51487;52.266;10.542;2023-03-14T11:48:57;0.80;;;0.80;;
64959;SDS011;51487;52.266;10.542;2023-03-14T11:51:33;0.75;;;0.75;;
64959;SDS011;51487;52.266;10.542;2023-03-14T11:54:08;4.03;;;1.00;;
64959;SDS011;51487;52.266;10.542;2023-03-14T11:56:41;0.80;;;0.80;;
64959;SDS011;51487;52.266;10.542;2023-03-14T11:59:27;2.47;;;0.90;;
64959;SDS011;51487;52.266;10.542;2023-03-14T12:02:50;2.10;;;0.80;;
64959;SDS011;51487;52.266;10.542;2023-03-14T12:11:14;0.70;;;0.70;;
64959;SDS011;51487;52.266;10.542;2023-03-14T12:14:20;1.05;;;0.90;;
64959;SDS011;51487;52.266;10.542;2023-03-14T12:16:48;1.95;;;1.05;;
64959;SDS011;51487;52.266;10.542;2023-03-14T12:21:48;1.27;;;1.10;;
64959;SDS011;51487;52.266;10.542;2023-03-14T12:24:47;0.95;;;0.90;;
64959;SDS011;51487;52.266;10.542;2023-03-14T12:35:43;4.00;;;1.13;;
64959;SDS011;51487;52.266;10.542;2023-03-14T12:41:03;1.90;;;1.20;;
64959;SDS011;51487;52.266;10.542;2023-03-14T12:43:51;1.95;;;1.20;;
64959;SDS011;51487;52.266;10.542;2023-03-14T12:48:49;1.13;;;1.02;;
64959;SDS011;51487;52.266;10.542;2023-03-14T12:51:38;2.60;;;1.17;;
64959;SDS011;51487;52.266;10.542;2023-03-14T12:57:10;3.33;;;1.20;;
64959;SDS011;51487;52.266;10.542;2023-03-14T13:00:16;3.28;;;1.30;;
64959;SDS011;51487;52.266;10.542;2023-03-14T13:02:46;1.40;;;1.10;;
64959;SDS011;51487;52.266;10.542;2023-03-14T13:10:23;1.10;;;1.10;;
64959;SDS011;51487;52.266;10.542;2023-03-14T13:13:11;3.03;;;1.30;;
64959;SDS011;51487;52.266;10.542;2023-03-14T13:15:47;1.08;;;1.08;;
64959;SDS011;51487;52.266;10.542;2023-03-14T13:18:23;1.13;;;1.10;;
64959;SDS011;51487;52.266;10.542;2023-03-14T13:20:53;1.20;;;1.20;;
64959;SDS011;51487;52.266;10.542;2023-03-14T13:23:27;1.30;;;1.27;;
64959;SDS011;51487;52.266;10.542;2023-03-14T13:28:22;1.17;;;1.17;;
64959;SDS011;51487;52.266;10.542;2023-03-14T13:30:49;1.25;;;1.17;;
64959;SDS011;51487;52.266;10.542;2023-03-14T13:33:20;1.20;;;1.20;;
64959;SDS011;51487;52.266;10.542;2023-03-14T13:35:58;1.30;;;1.20;;
64959;SDS011;51487;52.266;10.542;2023-03-14T13:38:30;1.00;;;1.00;;
64959;SDS011;51487;52.266;10.542;2023-03-14T13:41:00;2.72;;;1.45;;
64959;SDS011;51487;52.266;10.542;2023-03-14T13:43:32;1.40;;;1.30;;
64959;SDS011;51487;52.266;10.542;2023-03-14T13:46:04;1.33;;;1.23;;
64959;SDS011;51487;52.266;10.542;2023-03-14T13:48:41;1.17;;;1.10;;
64959;SDS011;51487;52.266;10.542;2023-03-14T13:51:13;1.33;;;1.25;;
64959;SDS011;51487;52.266;10.542;2023-03-14T13:53:48;3.03;;;1.30;;
64959;SDS011;51487;52.266;10.542;2023-03-14T13:56:17;2.40;;;1.38;;
64959;SDS011;51487;52.266;10.542;2023-03-14T13:58:45;3.38;;;1.50;;
64959;SDS011;51487;52.266;10.542;2023-03-14T14:03:45;3.22;;;1.55;;
64959;SDS011;51487;52.266;10.542;2023-03-14T14:06:36;3.85;;;1.80;;
64959;SDS011;51487;52.266;10.542;2023-03-14T14:12:00;7.20;;;2.10;;
64959;SDS011;51487;52.266;10.542;2023-03-14T14:14:38;4.57;;;1.90;;
64959;SDS011;51487;52.266;10.542;2023-03-14T14:17:38;2.83;;;1.63;;
64959;SDS011;51487;52.266;10.542;2023-03-14T14:20:17;6.03;;;2.15;;
64959;SDS011;51487;52.266;10.542;2023-03-14T14:22:59;6.75;;;1.92;;
64959;SDS011;51487;52.266;10.542;2023-03-14T14:25:28;5.13;;;1.80;;
64959;SDS011;51487;52.266;10.542;2023-03-14T14:27:55;4.53;;;1.83;;
64959;SDS011;51487;52.266;10.542;2023-03-14T14:30:30;6.90;;;2.10;;
64959;SDS011;51487;52.266;10.542;2023-03-14T14:33:18;5.90;;;1.98;;
64959;SDS011;51487;52.266;10.542;2023-03-14T14:36:04;8.73;;;2.67;;
64959;SDS011;51487;52.266;10.542;2023-03-14T14:38:30;6.93;;;2.47;;
64959;SDS011;51487;52.266;10.542;2023-03-14T14:40:59;5.30;;;2.00;;
64959;SDS011;51487;52.266;10.542;2023-03-14T14:43:28;5.90;;;2.03;;
64959;SDS011;51487;52.266;10.542;2023-03-14T14:46:01;2.85;;;2.05;;
64959;SDS011;51487;52.266;10.542;2023-03-14T14:48:35;5.30;;;1.60;;
64959;SDS011;51487;52.266;10.542;2023-03-14T14:51:04;3.88;;;1.67;;
64959;SDS011;51487;52.266;10.542;2023-03-14T14:53:36;8.68;;;2.30;;
64959;SDS011;51487;52.266;10.542;2023-03-14T14:56:15;11.85;;;2.28;;
64959;SDS011;51487;52.266;10.542;2023-03-14T14:58:55;3.25;;;1.60;;
64959;SDS011;51487;52.266;10.542;2023-03-14T15:01:34;4.15;;;1.70;;
64959;SDS011;51487;52.266;10.542;2023-03-14T15:04:08;5.35;;;2.10;;
64959;SDS011;51487;52.266;10.542;2023-03-14T15:06:38;7.35;;;1.67;;
64959;SDS011;51487;52.266;10.542;2023-03-14T15:09:09;7.75;;;2.15;;
64959;SDS011;51487;52.266;10.542;2023-03-14T15:11:36;8.98;;;2.13;;
64959;SDS011;51487;52.266;10.542;2023-03-14T15:14:02;7.95;;;2.17;;
64959;SDS011;51487;52.266;10.542;2023-03-14T15:16:29;7.88;;;2.25;;
64959;SDS011;51487;52.266;10.542;2023-03-14T15:18:58;10.35;;;2.40;;
64959;SDS011;51487;52.266;10.542;2023-03-14T15:21:26;8.43;;;2.10;;
64959;SDS011;51487;52.266;10.542;2023-03-14T15:23:53;8.80;;;2.22;;
64959;SDS011;51487;52.266;10.542;2023-03-14T15:26:21;11.25;;;2.92;;
64959;SDS011;51487;52.266;10.542;2023-03-14T15:28:50;15.27;;;3.88;;
64959;SDS011;51487;52.266;10.542;2023-03-14T15:31:16;7.57;;;2.50;;
64959;SDS011;51487;52.266;10.542;2023-03-14T15:33:44;11.98;;;2.45;;
64959;SDS011;51487;52.266;10.542;2023-03-14T15:36:15;10.73;;;2.58;;
64959;SDS011;51487;52.266;10.542;2023-03-14T15:38:54;11.90;;;2.50;;
64959;SDS011;51487;52.266;10.542;2023-03-14T15:41:20;6.80;;;2.20;;
64959;SDS011;51487;52.266;10.542;2023-03-14T15:43:47;13.82;;;2.95;;
64959;SDS011;51487;52.266;10.542;2023-03-14T15:46:14;12.60;;;2.53;;
64959;SDS011;51487;52.266;10.542;2023-03-14T15:48:42;8.55;;;2.70;;
64959;SDS011;51487;52.266;10.542;2023-03-14T15:51:11;9.07;;;2.30;;
64959;SDS011;51487;52.266;10.542;2023-03-14T15:53:38;9.60;;;2.30;;
64959;SDS011;51487;52.266;10.542;2023-03-14T15:56:07;8.18;;;2.83;;
64959;SDS011;51487;52.266;10.542;2023-03-14T15:58:38;9.65;;;2.08;;
64959;SDS011;51487;52.266;10.542;2023-03-14T16:01:05;11.57;;;2.50;;
64959;SDS011;51487;52.266;10.542;2023-03-14T16:03:36;9.95;;;2.63;;